Time;durP1;ratioP1;P1;durP2;ratioP2;P2;SDS_P1;SDS_P2;PMS_P1;PMS_P2;Temp;Humidity;BMP_temperature;BMP_pressure;BME280_temperature;BME280_humidity;BME280_pressure;Samples;Min_cycle;Max_cycle;Signal;HPM_P1;HPM_P2
2023/10/30 00:02:01;;;;;;;6.10;1.58;;;16.40;1.00;;;;;;5050309;28;20037;-41
2023/10/30 00:04:27;;;;;;;6.60;1.70;;;16.60;1.00;;;;;;5049481;28;20125;-42
2023/10/30 00:06:52;;;;;;;7.80;1.38;;;16.50;1.00;;;;;;5048497;28;20045;-41
2023/10/30 00:09:18;;;;;;;6.82;1.50;;;15.70;1.00;;;;;;5046251;28;20041;-41
2023/10/30 00:11:46;;;;;;;8.52;1.50;;;;;;;;;;5049113;28;20116;-41
2023/10/30 00:14:12;;;;;;;5.43;1.30;;;16.60;1.00;;;;;;5051082;28;20519;-41
2023/10/30 00:16:38;;;;;;;6.88;1.55;;;16.40;1.00;;;;;;5046731;28;20131;-40
2023/10/30 00:19:04;;;;;;;6.22;1.58;;;16.10;1.00;;;;;;5056905;28;20119;-41
2023/10/30 00:21:30;;;;;;;4.68;1.38;;;15.90;1.00;;;;;;5051818;28;20049;-41
2023/10/30 00:23:57;;;;;;;5.53;1.65;;;16.20;1.00;;;;;;5050640;28;20041;-41
2023/10/30 00:26:23;;;;;;;5.53;1.50;;;16.60;1.00;;;;;;5051789;28;20116;-41
2023/10/30 00:28:51;;;;;;;4.32;1.42;;;16.30;1.00;;;;;;5046144;28;20112;-41
2023/10/30 00:31:17;;;;;;;4.53;1.20;;;16.20;1.00;;;;;;5051231;28;20091;-41
2023/10/30 00:33:43;;;;;;;8.27;1.55;;;16.90;1.00;;;;;;5049888;28;20494;-41
2023/10/30 00:36:08;;;;;;;6.57;1.48;;;16.00;1.00;;;;;;5052416;28;20041;-41
2023/10/30 00:38:34;;;;;;;8.18;1.48;;;16.80;1.00;;;;;;5050255;28;20056;-41
2023/10/30 00:40:59;;;;;;;7.85;1.58;;;16.00;1.00;;;;;;5047894;28;20041;-41
2023/10/30 00:43:25;;;;;;;10.65;1.70;;;16.10;1.00;;;;;;5046722;28;20503;-41
2023/10/30 00:45:51;;;;;;;7.65;1.60;;;;;;;;;;5050112;28;20211;-41
2023/10/30 00:48:19;;;;;;;6.45;1.50;;;16.10;99.90;;;;;;5044604;28;20029;-41
2023/10/30 00:50:45;;;;;;;4.75;1.52;;;16.60;99.90;;;;;;5047867;28;20127;-41
2023/10/30 00:53:11;;;;;;;5.03;1.25;;;15.40;99.90;;;;;;5052297;28;20522;-40
2023/10/30 00:55:41;;;;;;;5.95;1.60;;;16.80;1.00;;;;;;5047614;28;20037;-41
2023/10/30 00:58:10;;;;;;;8.05;2.28;;;;;;;;;;5048451;28;20037;-41
2023/10/30 01:00:38;;;;;;;3.75;1.27;;;16.70;1.00;;;;;;5046859;28;20044;-40
2023/10/30 01:03:04;;;;;;;5.50;1.20;;;16.10;1.00;;;;;;5045635;28;20048;-41
2023/10/30 01:05:29;;;;;;;6.05;1.35;;;15.70;1.00;;;;;;5048644;28;20377;-40
2023/10/30 01:07:55;;;;;;;6.53;1.45;;;16.60;99.90;;;;;;5050875;28;20118;-41
2023/10/30 01:10:21;;;;;;;4.97;1.17;;;;;;;;;;5029648;28;20095;-38
2023/10/30 01:12:46;;;;;;;5.30;1.20;;;16.00;1.00;;;;;;5046915;28;20436;-41
2023/10/30 01:15:13;;;;;;;4.50;1.20;;;;;;;;;;5047941;28;20036;-41
2023/10/30 01:17:39;;;;;;;4.32;1.33;;;16.10;1.00;;;;;;5047709;28;20071;-41
2023/10/30 01:20:07;;;;;;;4.25;1.02;;;16.20;1.00;;;;;;5042259;28;20068;-41
2023/10/30 01:22:32;;;;;;;6.15;1.35;;;16.60;99.90;;;;;;5079978;28;20098;-41
2023/10/30 01:24:58;;;;;;;4.60;1.00;;;;;;;;;;5049844;28;20049;-40
2023/10/30 01:27:24;;;;;;;4.47;1.08;;;16.50;1.00;;;;;;5048408;28;20041;-41
2023/10/30 01:29:49;;;;;;;4.10;1.20;;;16.10;1.00;;;;;;5042872;28;20270;-41
2023/10/30 01:32:15;;;;;;;5.47;1.30;;;16.10;1.00;;;;;;5051638;28;20357;-41
2023/10/30 01:34:41;;;;;;;6.13;1.58;;;16.60;99.90;;;;;;5027526;28;20463;-41
2023/10/30 01:37:07;;;;;;;4.65;1.27;;;;;;;;;;5044296;28;20044;-40
2023/10/30 01:39:33;;;;;;;5.50;1.45;;;16.00;1.00;;;;;;5045303;28;20026;-40
2023/10/30 01:41:58;;;;;;;5.47;1.17;;;16.40;99.90;;;;;;5050056;28;20495;-38
2023/10/30 01:44:24;;;;;;;4.60;1.10;;;16.00;1.00;;;;;;5054266;28;20028;-40
2023/10/30 01:46:50;;;;;;;6.15;1.35;;;16.20;99.90;;;;;;5047841;28;20041;-41
2023/10/30 01:49:15;;;;;;;4.75;1.63;;;15.60;99.90;;;;;;5047438;28;20037;-38
2023/10/30 01:51:42;;;;;;;5.15;1.20;;;;;;;;;;5045358;28;20118;-40
2023/10/30 01:54:08;;;;;;;3.30;0.90;;;16.50;99.90;;;;;;5048393;28;20033;-39
2023/10/30 01:56:34;;;;;;;5.10;1.48;;;16.50;99.90;;;;;;5051245;28;20029;-40
2023/10/30 01:59:01;;;;;;;4.45;1.13;;;;;;;;;;5051842;28;20044;-40
2023/10/30 02:01:27;;;;;;;6.25;2.22;;;;;;;;;;5037917;28;20087;-40
2023/10/30 02:03:55;;;;;;;4.43;1.10;;;15.90;99.90;;;;;;5048079;28;20053;-41
2023/10/30 02:06:20;;;;;;;5.60;1.38;;;16.00;1.00;;;;;;5044308;28;20428;-40
2023/10/30 02:08:47;;;;;;;5.63;1.30;;;16.00;99.90;;;;;;5047251;28;20040;-41
2023/10/30 02:11:13;;;;;;;4.85;1.30;;;15.90;99.90;;;;;;5047296;28;20520;-40
2023/10/30 02:13:38;;;;;;;4.38;1.00;;;16.30;99.90;;;;;;5039638;28;20455;-40
2023/10/30 02:16:04;;;;;;;3.92;1.00;;;;;;;;;;5044840;28;20029;-41
2023/10/30 02:18:31;;;;;;;5.65;1.55;;;16.00;99.90;;;;;;5043082;28;20562;-41
2023/10/30 02:20:57;;;;;;;6.25;1.77;;;15.50;99.90;;;;;;5046605;28;20493;-40
2023/10/30 02:23:23;;;;;;;4.05;1.40;;;16.50;99.90;;;;;;5045631;28;20037;-40
2023/10/30 02:25:50;;;;;;;5.03;1.20;;;16.10;99.90;;;;;;5047139;28;20057;-41
2023/10/30 02:28:17;;;;;;;3.95;0.80;;;16.30;99.90;;;;;;5046377;28;20121;-40
2023/10/30 02:30:43;;;;;;;4.53;1.08;;;16.30;1.00;;;;;;5049071;28;20500;-39
2023/10/30 02:33:08;;;;;;;4.18;0.98;;;16.00;99.90;;;;;;5043890;28;20043;-41
2023/10/30 02:35:35;;;;;;;4.30;1.10;;;16.40;99.90;;;;;;5048796;28;20082;-41
2023/10/30 02:38:00;;;;;;;5.38;1.00;;;16.20;1.00;;;;;;5047973;28;20080;-41
2023/10/30 02:40:29;;;;;;;6.68;1.35;;;;;;;;;;5044039;28;20060;-41
2023/10/30 02:42:55;;;;;;;4.13;1.05;;;15.70;99.90;;;;;;5044879;28;20045;-41
2023/10/30 02:45:21;;;;;;;3.78;0.90;;;15.40;99.90;;;;;;5046129;28;20029;-41
2023/10/30 02:47:47;;;;;;;4.07;1.00;;;16.10;99.90;;;;;;5045262;28;20052;-40
2023/10/30 02:50:13;;;;;;;3.30;0.90;;;15.40;99.90;;;;;;5046284;28;20037;-40
2023/10/30 02:52:38;;;;;;;6.28;1.23;;;16.60;99.90;;;;;;5044104;28;20040;-40
2023/10/30 02:55:04;;;;;;;4.22;1.10;;;15.80;1.00;;;;;;5042860;28;20131;-41
2023/10/30 02:57:30;;;;;;;4.05;1.27;;;16.00;99.90;;;;;;5046220;28;20052;-41
2023/10/30 02:59:55;;;;;;;3.55;1.00;;;16.60;99.90;;;;;;5049295;28;20033;-41
2023/10/30 03:02:21;;;;;;;4.63;1.38;;;15.90;99.90;;;;;;5042279;28;20409;-41
2023/10/30 03:04:47;;;;;;;4.03;0.90;;;;;;;;;;5046460;28;20033;-41
2023/10/30 03:07:15;;;;;;;3.28;1.00;;;16.00;99.90;;;;;;5040093;28;20033;-41
2023/10/30 03:09:41;;;;;;;7.10;1.50;;;15.40;99.90;;;;;;5046164;28;20036;-41
2023/10/30 03:12:06;;;;;;;2.90;1.00;;;16.50;99.90;;;;;;5047518;28;20531;-41
2023/10/30 03:14:32;;;;;;;2.67;0.80;;;15.50;99.90;;;;;;5046543;28;20034;-41
2023/10/30 03:17:01;;;;;;;4.15;1.20;;;16.50;99.90;;;;;;5044859;28;20111;-41
2023/10/30 03:19:26;;;;;;;4.35;0.95;;;16.00;99.90;;;;;;5044406;28;20037;-41
2023/10/30 03:21:52;;;;;;;4.13;1.10;;;15.40;99.90;;;;;;5047510;28;20049;-41
2023/10/30 03:24:17;;;;;;;4.28;1.20;;;15.90;99.90;;;;;;5043609;28;20481;-40
2023/10/30 03:26:43;;;;;;;4.03;1.00;;;15.90;99.90;;;;;;5044718;28;20059;-41
2023/10/30 03:29:09;;;;;;;4.68;1.10;;;;;;;;;;5049051;28;20107;-41
2023/10/30 03:31:35;;;;;;;4.70;1.40;;;16.70;99.90;;;;;;5045385;28;20506;-41
2023/10/30 03:34:00;;;;;;;3.22;1.10;;;16.30;99.90;;;;;;5043645;28;20123;-40
2023/10/30 03:36:26;;;;;;;5.03;1.38;;;16.00;99.90;;;;;;5037768;28;20640;-41
2023/10/30 03:38:52;;;;;;;7.22;1.75;;;16.40;99.90;;;;;;5044163;28;20117;-41
2023/10/30 03:41:18;;;;;;;6.25;1.60;;;16.00;99.90;;;;;;5029086;28;20180;-41
2023/10/30 03:43:44;;;;;;;4.47;1.10;;;16.50;99.90;;;;;;5048426;28;20037;-41
2023/10/30 03:46:09;;;;;;;3.65;1.25;;;16.00;99.90;;;;;;5049210;28;20102;-41
2023/10/30 03:48:35;;;;;;;8.35;1.50;;;16.00;99.90;;;;;;5050493;28;20040;-40
2023/10/30 03:51:02;;;;;;;6.78;1.45;;;16.10;99.90;;;;;;5050567;28;20044;-41
2023/10/30 03:53:29;;;;;;;5.50;1.52;;;16.50;99.90;;;;;;5049564;28;20076;-40
2023/10/30 03:55:55;;;;;;;6.47;1.70;;;16.40;99.90;;;;;;5050649;28;20037;-41
2023/10/30 03:58:21;;;;;;;5.03;1.67;;;16.00;99.90;;;;;;5048469;28;20044;-41
2023/10/30 04:00:47;;;;;;;5.53;1.50;;;;;;;;;;5044416;28;20053;-41
2023/10/30 04:03:13;;;;;;;6.80;1.70;;;15.90;99.90;;;;;;5047673;28;20127;-40
2023/10/30 04:05:38;;;;;;;5.97;1.67;;;16.40;99.90;;;;;;5049812;28;20186;-41
2023/10/30 04:08:05;;;;;;;8.43;1.85;;;16.40;99.90;;;;;;5049196;28;20572;-40
2023/10/30 04:10:31;;;;;;;6.90;1.60;;;15.80;99.90;;;;;;5079559;28;20040;-39
2023/10/30 04:12:57;;;;;;;6.28;1.73;;;;;;;;;;5050390;28;20044;-41
2023/10/30 04:15:23;;;;;;;8.20;1.65;;;15.50;99.90;;;;;;5049061;28;20045;-39
2023/10/30 04:17:49;;;;;;;6.22;1.67;;;;;;;;;;5052959;28;20045;-41
2023/10/30 04:20:15;;;;;;;6.45;1.90;;;15.70;99.90;;;;;;5049362;28;20492;-41
2023/10/30 04:22:43;;;;;;;7.47;2.10;;;15.70;99.90;;;;;;5047507;28;20103;-41
2023/10/30 04:25:09;;;;;;;8.80;1.83;;;15.70;99.90;;;;;;5049725;28;20593;-41
2023/10/30 04:27:35;;;;;;;5.15;1.80;;;15.60;99.90;;;;;;5043848;28;20045;-41
2023/10/30 04:30:02;;;;;;;6.03;1.60;;;15.70;99.90;;;;;;5050534;28;20029;-41
2023/10/30 04:32:28;;;;;;;6.82;1.85;;;15.40;99.90;;;;;;5048022;28;20534;-41
2023/10/30 04:34:54;;;;;;;7.43;1.77;;;15.90;99.90;;;;;;5050754;28;20037;-40
2023/10/30 04:37:21;;;;;;;8.18;1.90;;;15.70;99.90;;;;;;5046371;28;20044;-40
2023/10/30 04:39:47;;;;;;;7.15;1.85;;;15.60;99.90;;;;;;5050358;28;20121;-41
2023/10/30 04:42:13;;;;;;;8.27;1.88;;;15.40;99.90;;;;;;5047637;28;20119;-41
2023/10/30 04:44:38;;;;;;;8.80;2.10;;;15.10;99.90;;;;;;5050504;28;20043;-40
2023/10/30 04:47:06;;;;;;;6.45;2.30;;;;;;;;;;5050082;28;20045;-41
2023/10/30 04:49:34;;;;;;;7.63;2.15;;;15.70;99.90;;;;;;5048629;28;20040;-41
2023/10/30 04:52:00;;;;;;;6.50;1.80;;;15.70;99.90;;;;;;5050135;28;20037;-41
2023/10/30 04:54:26;;;;;;;6.55;1.83;;;15.70;99.90;;;;;;5047664;28;20436;-41
2023/10/30 04:56:52;;;;;;;7.03;1.92;;;15.00;99.90;;;;;;5048210;28;20041;-41
2023/10/30 04:59:19;;;;;;;10.27;2.85;;;;;;;;;;5047458;28;20584;-39
2023/10/30 05:01:45;;;;;;;7.30;1.65;;;15.70;99.90;;;;;;5044882;28;20492;-41
2023/10/30 05:04:12;;;;;;;10.32;2.10;;;15.90;99.90;;;;;;5048390;28;20045;-41
2023/10/30 05:06:37;;;;;;;7.38;2.33;;;15.70;99.90;;;;;;5047268;28;20059;-40
2023/10/30 05:09:04;;;;;;;8.27;1.83;;;16.00;99.90;;;;;;5049883;28;20512;-41
2023/10/30 05:11:30;;;;;;;9.07;2.75;;;15.60;99.90;;;;;;5049155;28;20057;-41
2023/10/30 05:13:56;;;;;;;6.97;2.03;;;16.00;99.90;;;;;;5046618;28;20040;-41
2023/10/30 05:16:22;;;;;;;7.63;2.25;;;15.50;99.90;;;;;;5044133;28;20041;-39
2023/10/30 05:18:49;;;;;;;7.60;2.15;;;15.00;99.90;;;;;;5046275;28;20037;-40
2023/10/30 05:21:15;;;;;;;6.05;1.88;;;15.10;99.90;;;;;;5046934;28;20045;-41
2023/10/30 05:23:42;;;;;;;6.53;1.45;;;;;;;;;;5044569;28;20416;-40
2023/10/30 05:26:07;;;;;;;7.95;2.47;;;15.60;99.90;;;;;;5042324;28;20528;-39
2023/10/30 05:28:33;;;;;;;8.18;2.33;;;15.00;99.90;;;;;;5036632;28;20051;-40
2023/10/30 05:31:04;;;;;;;11.57;2.38;;;15.60;99.90;;;;;;5046710;28;20056;-40
2023/10/30 05:33:29;;;;;;;17.88;3.42;;;15.00;99.90;;;;;;5047230;28;20047;-41
2023/10/30 05:35:56;;;;;;;34.25;8.48;;;;;;;;;;5044704;28;20119;-40
2023/10/30 05:38:22;;;;;;;38.53;12.02;;;;;;;;;;5040442;28;20047;-41
2023/10/30 05:40:48;;;;;;;64.68;21.27;;;15.80;1.00;;;;;;5040343;28;20504;-41
2023/10/30 05:43:14;;;;;;;59.42;15.77;;;;;;;;;;5046132;28;20067;-40
2023/10/30 05:45:39;;;;;;;44.53;12.02;;;16.40;1.00;;;;;;5036944;28;20546;-40
2023/10/30 05:48:06;;;;;;;36.28;10.82;;;15.90;1.00;;;;;;5043357;28;20037;-41
2023/10/30 05:50:32;;;;;;;22.60;8.13;;;16.10;1.00;;;;;;5043136;28;20492;-40
2023/10/30 05:52:58;;;;;;;31.30;8.20;;;15.80;1.00;;;;;;5044076;28;20041;-40
2023/10/30 05:55:24;;;;;;;20.98;6.35;;;15.70;1.00;;;;;;5035990;28;20045;-40
2023/10/30 05:57:49;;;;;;;27.05;8.15;;;15.70;1.00;;;;;;5038266;28;20029;-41
2023/10/30 06:00:15;;;;;;;17.45;6.30;;;;;;;;;;5052993;28;20037;-41
2023/10/30 06:02:41;;;;;;;23.63;6.47;;;15.70;1.00;;;;;;5043264;28;20048;-41
2023/10/30 06:05:08;;;;;;;15.10;5.57;;;15.70;1.00;;;;;;5053949;28;20033;-41
2023/10/30 06:07:34;;;;;;;24.77;6.00;;;16.60;1.00;;;;;;5044263;28;20037;-41
2023/10/30 06:10:01;;;;;;;16.92;5.57;;;16.30;1.00;;;;;;5041090;28;20037;-41
2023/10/30 06:12:27;;;;;;;15.30;5.25;;;15.70;1.00;;;;;;5035651;28;20041;-40
2023/10/30 06:14:53;;;;;;;18.75;5.22;;;16.80;1.00;;;;;;5049571;28;20107;-41
2023/10/30 06:17:18;;;;;;;14.55;4.80;;;16.30;1.00;;;;;;5044697;28;20033;-41
2023/10/30 06:19:44;;;;;;;11.10;3.90;;;16.70;1.00;;;;;;5043283;28;20044;-41
2023/10/30 06:22:09;;;;;;;11.73;3.00;;;16.30;1.00;;;;;;5050128;28;20408;-41
2023/10/30 06:24:35;;;;;;;13.88;3.53;;;16.10;1.00;;;;;;5041830;28;20037;-41
2023/10/30 06:27:01;;;;;;;14.27;3.95;;;16.10;1.00;;;;;;5059140;28;20135;-38
2023/10/30 06:29:27;;;;;;;7.82;2.22;;;16.30;1.00;;;;;;5045034;28;20155;-40
2023/10/30 06:31:53;;;;;;;8.18;2.22;;;16.70;1.00;;;;;;5049020;28;20037;-40
2023/10/30 06:34:18;;;;;;;9.10;2.83;;;16.80;1.00;;;;;;5046228;28;20447;-41
2023/10/30 06:36:46;;;;;;;11.43;3.50;;;15.70;1.00;;;;;;5046042;28;20037;-40
2023/10/30 06:39:13;;;;;;;9.95;3.58;;;16.10;1.00;;;;;;5047883;28;20461;-42
2023/10/30 06:41:39;;;;;;;12.18;3.38;;;15.60;1.00;;;;;;5048354;28;20087;-41
2023/10/30 06:44:04;;;;;;;10.98;2.63;;;15.50;1.00;;;;;;5047345;28;20033;-41
2023/10/30 06:46:30;;;;;;;10.68;2.35;;;;;;;;;;5053495;28;20040;-41
2023/10/30 06:48:56;;;;;;;10.80;3.08;;;15.50;1.00;;;;;;5049153;28;20098;-41
2023/10/30 06:51:21;;;;;;;13.43;3.63;;;15.90;1.00;;;;;;5048909;28;20048;-41
2023/10/30 06:53:47;;;;;;;10.27;2.80;;;15.50;1.00;;;;;;5050514;28;20048;-39
2023/10/30 06:56:13;;;;;;;9.50;2.65;;;16.10;1.00;;;;;;5049906;28;20044;-41
2023/10/30 06:58:38;;;;;;;11.93;2.80;;;15.40;1.00;;;;;;5037009;28;20025;-41
2023/10/30 07:01:04;;;;;;;10.80;2.78;;;15.50;1.00;;;;;;5057384;28;20048;-41
2023/10/30 07:03:32;;;;;;;10.65;3.30;;;16.00;1.00;;;;;;5053869;28;20029;-41
2023/10/30 07:05:58;;;;;;;9.40;2.20;;;16.00;1.00;;;;;;5046367;28;20032;-41
2023/10/30 07:08:23;;;;;;;11.07;2.75;;;16.00;1.00;;;;;;5053004;28;20086;-41
2023/10/30 07:10:49;;;;;;;8.20;2.40;;;16.60;1.00;;;;;;5052042;28;20037;-41
2023/10/30 07:13:15;;;;;;;7.45;2.42;;;16.50;1.00;;;;;;5056869;28;20171;-41
2023/10/30 07:15:41;;;;;;;9.23;2.70;;;15.50;1.00;;;;;;5058483;28;20033;-41
2023/10/30 07:18:06;;;;;;;7.60;2.35;;;15.90;1.00;;;;;;5061237;28;20057;-40
2023/10/30 07:20:32;;;;;;;8.80;2.30;;;;;;;;;;5050142;28;20028;-41
2023/10/30 07:22:59;;;;;;;10.70;2.90;;;16.00;1.00;;;;;;5045693;28;20040;-40
2023/10/30 07:25:24;;;;;;;7.75;2.08;;;16.60;1.00;;;;;;5055737;28;20195;-42
2023/10/30 07:27:50;;;;;;;7.93;2.17;;;16.10;1.00;;;;;;5054388;28;20055;-41
2023/10/30 07:30:16;;;;;;;7.75;2.40;;;15.50;1.00;;;;;;5059350;28;20593;-41
2023/10/30 07:32:43;;;;;;;9.70;2.78;;;15.90;1.00;;;;;;5049766;28;20049;-41
2023/10/30 07:35:10;;;;;;;8.50;2.00;;;16.20;99.90;;;;;;5052410;28;20481;-41
2023/10/30 07:37:36;;;;;;;9.75;2.35;;;15.90;1.00;;;;;;5051245;28;20420;-41
2023/10/30 07:40:05;;;;;;;8.18;2.10;;;15.90;99.90;;;;;;5051874;28;20095;-40
2023/10/30 07:42:31;;;;;;;7.40;2.20;;;15.30;1.00;;;;;;5048393;28;20116;-41
2023/10/30 07:44:57;;;;;;;7.53;2.25;;;16.50;1.00;;;;;;5047147;28;20069;-41
2023/10/30 07:47:23;;;;;;;9.35;2.25;;;16.30;1.00;;;;;;5049223;28;20057;-40
2023/10/30 07:49:49;;;;;;;9.98;2.25;;;15.40;1.00;;;;;;5051614;28;20059;-40
2023/10/30 07:52:14;;;;;;;7.72;1.80;;;16.40;1.00;;;;;;5055182;28;20040;-40
2023/10/30 07:54:40;;;;;;;9.20;2.42;;;15.70;1.00;;;;;;5051341;28;20556;-41
2023/10/30 07:57:08;;;;;;;10.65;2.53;;;16.00;1.00;;;;;;5052206;28;20064;-41
2023/10/30 07:59:35;;;;;;;6.65;2.05;;;15.90;1.00;;;;;;5059685;28;20067;-41
2023/10/30 08:02:01;;;;;;;8.77;2.42;;;16.00;1.00;;;;;;5066666;28;20250;-41
2023/10/30 08:04:27;;;;;;;6.63;2.20;;;;;;;;;;5054014;28;20036;-41
2023/10/30 08:06:53;;;;;;;7.45;2.00;;;;;;;;;;5049505;28;20087;-40
2023/10/30 08:09:19;;;;;;;7.15;2.53;;;15.80;1.00;;;;;;5058937;28;20036;-41
2023/10/30 08:11:45;;;;;;;7.82;2.08;;;15.60;1.00;;;;;;5048118;28;20029;-41
2023/10/30 08:14:11;;;;;;;6.63;2.60;;;15.50;1.00;;;;;;5059120;28;20487;-41
2023/10/30 08:16:36;;;;;;;8.27;2.42;;;15.50;1.00;;;;;;5050880;28;20108;-41
2023/10/30 08:19:02;;;;;;;9.85;2.47;;;16.00;1.00;;;;;;5049515;28;20374;-40
2023/10/30 08:21:28;;;;;;;6.28;1.60;;;;;;;;;;5053820;28;20286;-41
2023/10/30 08:23:54;;;;;;;10.02;2.13;;;;;;;;;;5050747;28;20044;-41
2023/10/30 08:26:25;;;;;;;9.98;2.55;;;16.30;99.90;;;;;;5051643;28;20447;-40
2023/10/30 08:28:51;;;;;;;7.10;1.98;;;16.50;1.00;;;;;;5050069;28;20037;-41
2023/10/30 08:31:17;;;;;;;8.07;2.25;;;15.50;1.00;;;;;;5051402;28;20457;-41
2023/10/30 08:33:43;;;;;;;5.43;1.70;;;16.30;1.00;;;;;;5055350;28;20153;-39
2023/10/30 08:36:08;;;;;;;7.10;1.85;;;16.00;1.00;;;;;;5059530;28;20041;-42
2023/10/30 08:38:34;;;;;;;11.00;2.53;;;16.30;1.00;;;;;;5051712;28;20036;-41
2023/10/30 08:40:59;;;;;;;8.77;2.00;;;16.10;1.00;;;;;;5054692;28;20056;-41
2023/10/30 08:43:25;;;;;;;8.80;2.38;;;16.00;1.00;;;;;;5050581;28;20036;-41
2023/10/30 08:45:51;;;;;;;5.07;2.10;;;16.00;1.00;;;;;;5050515;28;20455;-41
2023/10/30 08:48:16;;;;;;;7.63;2.20;;;16.40;1.00;;;;;;5052257;28;20040;-41
2023/10/30 08:50:42;;;;;;;10.10;2.42;;;;;;;;;;5050018;28;20048;-39
2023/10/30 08:53:08;;;;;;;6.55;1.80;;;16.10;1.00;;;;;;5048852;28;20087;-40
2023/10/30 08:55:34;;;;;;;7.97;2.10;;;16.00;1.00;;;;;;5054680;28;20025;-41
2023/10/30 08:58:00;;;;;;;7.13;2.13;;;15.30;1.00;;;;;;5046898;28;20048;-41
2023/10/30 09:00:26;;;;;;;7.50;2.45;;;16.10;1.00;;;;;;5051912;28;20159;-41
2023/10/30 09:02:52;;;;;;;8.60;2.65;;;;;;;;;;5049783;28;20514;-41
2023/10/30 09:05:18;;;;;;;8.55;2.25;;;15.40;1.00;;;;;;5049142;28;20123;-40
2023/10/30 09:07:46;;;;;;;8.77;2.15;;;;;;;;;;5051196;28;20037;-41
2023/10/30 09:10:11;;;;;;;8.40;2.10;;;15.30;1.00;;;;;;5049074;28;20033;-41
2023/10/30 09:12:37;;;;;;;8.38;2.15;;;16.10;1.00;;;;;;5046899;28;20034;-40
2023/10/30 09:15:05;;;;;;;6.75;2.65;;;16.00;1.00;;;;;;5055242;28;20128;-41
2023/10/30 09:17:30;;;;;;;8.80;2.00;;;15.90;1.00;;;;;;5050380;28;20796;-41
2023/10/30 09:19:56;;;;;;;9.07;2.08;;;15.40;1.00;;;;;;5049406;28;20033;-41
2023/10/30 09:22:22;;;;;;;6.05;1.55;;;;;;;;;;5051539;28;20412;-41
2023/10/30 09:24:48;;;;;;;10.05;2.40;;;;;;;;;;5049179;28;20047;-40
2023/10/30 09:27:13;;;;;;;6.78;1.83;;;15.60;1.00;;;;;;5049651;28;20043;-41
2023/10/30 09:29:40;;;;;;;8.38;2.08;;;16.30;1.00;;;;;;5048534;28;20127;-41
2023/10/30 09:32:06;;;;;;;7.93;2.22;;;16.00;1.00;;;;;;5052632;28;20119;-41
2023/10/30 09:34:31;;;;;;;6.93;2.42;;;16.10;1.00;;;;;;5046922;28;20463;-40
2023/10/30 09:36:58;;;;;;;8.15;2.50;;;15.30;1.00;;;;;;5057733;28;20115;-41
2023/10/30 09:39:24;;;;;;;9.25;2.63;;;;;;;;;;5048230;28;20041;-41
2023/10/30 09:41:52;;;;;;;7.78;2.33;;;15.40;1.00;;;;;;5055852;28;20052;-41
2023/10/30 09:44:18;;;;;;;9.00;2.28;;;16.20;1.00;;;;;;5055863;28;20033;-41
2023/10/30 09:46:45;;;;;;;7.97;2.30;;;;;;;;;;5051715;28;20044;-41
2023/10/30 09:49:13;;;;;;;6.30;2.03;;;;;;;;;;5048996;28;20420;-40
2023/10/30 09:51:42;;;;;;;5.82;1.83;;;16.00;1.00;;;;;;5048356;28;20095;-40
2023/10/30 09:54:09;;;;;;;7.68;2.30;;;16.00;1.00;;;;;;5049351;28;20037;-40
2023/10/30 09:56:37;;;;;;;7.38;2.22;;;15.80;1.00;;;;;;5049333;28;20408;-41
2023/10/30 09:59:03;;;;;;;7.53;2.13;;;16.20;1.00;;;;;;5049606;28;20040;-41
2023/10/30 10:01:29;;;;;;;8.63;2.42;;;;;;;;;;5049260;28;20175;-41
2023/10/30 10:03:55;;;;;;;8.43;2.33;;;16.00;1.00;;;;;;5053010;28;20285;-41
2023/10/30 10:06:21;;;;;;;6.82;2.35;;;15.60;1.00;;;;;;5051362;28;20044;-41
2023/10/30 10:08:47;;;;;;;7.45;2.10;;;16.50;1.00;;;;;;5050436;28;20052;-41
2023/10/30 10:11:13;;;;;;;8.60;3.53;;;;;;;;;;5047509;28;20403;-41
2023/10/30 10:13:43;;;;;;;6.50;2.00;;;;;;;;;;5048852;28;20333;-41
2023/10/30 10:16:10;;;;;;;7.65;2.17;;;16.50;1.00;;;;;;5048946;28;20052;-40
2023/10/30 10:18:36;;;;;;;8.43;1.88;;;16.00;1.00;;;;;;5046329;28;20037;-40
2023/10/30 10:21:11;;;;;;;7.53;2.00;;;15.90;99.90;;;;;;5029121;28;20126;-41
2023/10/30 10:23:38;;;;;;;8.80;2.30;;;16.20;1.00;;;;;;5046951;28;20037;-41
2023/10/30 10:26:06;;;;;;;9.10;3.13;;;15.30;1.00;;;;;;5053894;28;20099;-40
2023/10/30 10:28:33;;;;;;;9.07;2.17;;;15.70;1.00;;;;;;5051850;28;20048;-41
2023/10/30 10:30:59;;;;;;;7.22;1.95;;;16.70;1.00;;;;;;5047122;28;20045;-39
2023/10/30 10:33:27;;;;;;;10.10;2.30;;;;;;;;;;5043322;28;20045;-41
2023/10/30 10:35:54;;;;;;;7.70;2.15;;;;;;;;;;5052327;28;20076;-40
2023/10/30 10:38:21;;;;;;;8.30;2.65;;;16.20;1.00;;;;;;5047717;28;20462;-41
2023/10/30 10:40:47;;;;;;;6.88;2.00;;;16.10;1.00;;;;;;5056238;28;20037;-42
2023/10/30 10:43:18;;;;;;;7.93;2.53;;;16.70;99.90;;;;;;5051921;28;20182;-41
2023/10/30 10:45:45;;;;;;;6.82;2.28;;;;;;;;;;5053423;28;20372;-41
2023/10/30 10:48:11;;;;;;;7.18;2.28;;;16.00;1.00;;;;;;5055030;28;20037;-39
2023/10/30 10:50:37;;;;;;;11.45;2.60;;;16.60;1.00;;;;;;5049851;28;20041;-40
2023/10/30 10:53:04;;;;;;;7.15;1.88;;;;;;;;;;5055788;28;20036;-41
2023/10/30 10:55:34;;;;;;;7.63;1.77;;;16.40;99.90;;;;;;5055683;28;20033;-41
2023/10/30 10:58:09;;;;;;;7.28;2.03;;;;;;;;;;5057087;28;20052;-41
2023/10/30 11:00:42;;;;;;;9.05;2.10;;;;;;;;;;5052547;28;20424;-41
2023/10/30 11:03:08;;;;;;;9.07;2.83;;;16.10;1.00;;;;;;5038445;28;20121;-41
2023/10/30 11:05:35;;;;;;;8.45;2.13;;;16.40;1.00;;;;;;5054690;28;20389;-41
2023/10/30 11:08:11;;;;;;;7.90;2.03;;;;;;;;;;5056964;28;20041;-41
2023/10/30 11:10:46;;;;;;;7.70;1.95;;;16.50;1.00;;;;;;5049301;28;20116;-41
2023/10/30 11:13:31;;;;;;;7.20;1.80;;;;;;;;;;5054677;28;20040;-41
2023/10/30 11:16:00;;;;;;;;;;;16.00;1.00;;;;;;5051707;28;20060;-41
2023/10/30 11:18:29;;;;;;;7.25;2.00;;;;;;;;;;5052722;28;19920;-41
2023/10/30 11:21:09;;;;;;;11.52;2.50;;;;;;;;;;5048823;28;20496;-40
2023/10/30 11:23:44;;;;;;;6.43;2.00;;;16.20;99.90;;;;;;5065191;28;20171;-40
2023/10/30 11:26:10;;;;;;;8.05;2.33;;;16.40;1.00;;;;;;5049397;28;20142;-41
2023/10/30 11:28:37;;;;;;;9.70;2.13;;;16.20;1.00;;;;;;5036955;28;20048;-41
2023/10/30 11:31:24;;;;;;;5.38;1.77;;;;;;;;;;5051389;28;20044;-39
2023/10/30 11:33:50;;;;;;;10.45;2.10;;;15.80;1.00;;;;;;5076808;28;20049;-39
2023/10/30 11:36:21;;;;;;;8.25;2.17;;;16.10;1.00;;;;;;5051764;28;20055;-40
2023/10/30 11:38:53;;;;;;;6.97;2.00;;;;;;;;;;5050898;28;20045;-41
2023/10/30 11:41:19;;;;;;;7.15;2.00;;;15.80;1.00;;;;;;5053372;28;20405;-41
2023/10/30 11:43:45;;;;;;;7.18;2.03;;;16.00;1.00;;;;;;5051463;28;20044;-40
2023/10/30 11:46:16;;;;;;;10.90;2.53;;;16.00;99.90;;;;;;5051888;28;20068;-41
2023/10/30 11:48:42;;;;;;;6.43;1.90;;;;;;;;;;5052350;28;20111;-41
2023/10/30 11:51:09;;;;;;;8.60;1.90;;;16.40;1.00;;;;;;5050541;28;20048;-41
2023/10/30 11:53:35;;;;;;;7.10;1.85;;;16.30;1.00;;;;;;5036901;28;20044;-41
2023/10/30 11:56:01;;;;;;;10.18;2.25;;;15.60;1.00;;;;;;5035501;28;20069;-41
2023/10/30 11:58:28;;;;;;;6.43;2.33;;;16.20;1.00;;;;;;5051037;28;20388;-41
2023/10/30 12:00:59;;;;;;;12.85;2.80;;;;;;;;;;5050712;28;20091;-42
2023/10/30 12:03:25;;;;;;;8.68;1.75;;;;;;;;;;5052370;28;20037;-41
2023/10/30 12:05:51;;;;;;;9.50;2.55;;;16.30;1.00;;;;;;5051474;28;20044;-41
2023/10/30 12:08:17;;;;;;;8.38;2.10;;;16.80;1.00;;;;;;5054415;28;20078;-40
2023/10/30 12:10:48;;;;;;;6.50;2.00;;;16.20;1.00;;;;;;5050786;28;20458;-41
2023/10/30 12:13:13;;;;;;;8.60;2.28;;;16.30;1.00;;;;;;5050744;28;20534;-41
2023/10/30 12:15:40;;;;;;;6.47;2.05;;;16.30;1.00;;;;;;5052346;28;20037;-40
2023/10/30 12:18:06;;;;;;;9.05;2.10;;;16.30;1.00;;;;;;5049831;28;20041;-41
2023/10/30 12:20:32;;;;;;;8.82;2.13;;;;;;;;;;5052348;28;20036;-40
2023/10/30 12:22:58;;;;;;;8.95;2.22;;;16.40;1.00;;;;;;5050117;28;20564;-41
2023/10/30 12:25:24;;;;;;;12.02;2.83;;;16.20;1.00;;;;;;5051692;28;20119;-41
2023/10/30 12:27:59;;;;;;;8.25;2.05;;;15.60;1.00;;;;;;5052506;28;20072;-41
2023/10/30 12:30:31;;;;;;;6.38;2.10;;;;;;;;;;5046626;28;20162;-40
2023/10/30 12:32:57;;;;;;;8.82;2.78;;;16.60;1.00;;;;;;5048838;28;20524;-40
2023/10/30 12:35:23;;;;;;;8.57;2.47;;;16.50;1.00;;;;;;5052142;28;20055;-41
2023/10/30 12:37:49;;;;;;;8.73;2.85;;;16.50;1.00;;;;;;5046348;28;20041;-41
2023/10/30 12:40:15;;;;;;;7.70;1.60;;;;;;;;;;5050188;28;20112;-41
2023/10/30 12:43:02;;;;;;;7.00;1.80;;;15.80;1.00;;;;;;5050508;28;20083;-41
2023/10/30 12:45:28;;;;;;;7.20;2.25;;;16.40;1.00;;;;;;5032406;28;20037;-39
2023/10/30 12:47:53;;;;;;;9.27;2.42;;;16.40;1.00;;;;;;5049279;28;20454;-41
2023/10/30 12:50:19;;;;;;;9.45;2.10;;;16.00;1.00;;;;;;5049168;28;20041;-41
2023/10/30 12:52:45;;;;;;;10.20;2.30;;;16.00;1.00;;;;;;5048920;28;20520;-41
2023/10/30 12:55:11;;;;;;;8.73;2.17;;;15.80;99.90;;;;;;5046932;28;20033;-41
2023/10/30 12:57:37;;;;;;;5.75;1.80;;;16.20;1.00;;;;;;5044872;28;20033;-41
2023/10/30 13:00:05;;;;;;;8.07;2.70;;;15.80;1.00;;;;;;5051028;28;20036;-40
2023/10/30 13:02:31;;;;;;;7.25;2.53;;;16.90;1.00;;;;;;5030648;28;20132;-39
2023/10/30 13:04:57;;;;;;;7.80;1.95;;;15.80;1.00;;;;;;5050937;28;20611;-41
2023/10/30 13:07:22;;;;;;;7.93;2.38;;;16.30;1.00;;;;;;5050103;28;20492;-41